Time;durP1;ratioP1;P1;durP2;ratioP2;P2;SDS_P1;SDS_P2;PMS_P1;PMS_P2;Temp;Humidity;BMP_temperature;BMP_pressure;BME280_temperature;BME280_humidity;BME280_pressure;Samples;Min_cycle;Max_cycle;Signal;HPM_P1;HPM_P2
2022/06/27 00:02:14;;;;;;;2.03;1.30;;;;;23.30;101404.00;;;;5058097;28;20200;-78
2022/06/27 00:04:41;;;;;;;1.85;1.70;;;;;23.30;101410.00;;;;5053177;28;20204;-79
2022/06/27 00:07:08;;;;;;;1.58;1.38;;;;;23.30;101415.00;;;;5053074;28;20202;-79
2022/06/27 00:09:35;;;;;;;2.50;1.83;;;;;23.30;101428.00;;;;5063469;28;20206;-78
2022/06/27 00:12:03;;;;;;;4.43;1.60;;;;;23.30;101443.00;;;;5057075;28;20199;-79
2022/06/27 00:14:31;;;;;;;3.58;1.33;;;;;23.30;101450.00;;;;5055939;28;20210;-79
2022/06/27 00:16:59;;;;;;;2.00;1.30;;;;;23.20;101441.00;;;;5052787;28;22376;-79
2022/06/27 00:19:28;;;;;;;3.42;1.85;;;;;23.30;101444.00;;;;5052824;28;20230;-79
2022/06/27 00:21:55;;;;;;;2.58;1.33;;;;;23.30;101444.00;;;;5059261;28;20200;-79
2022/06/27 00:24:24;;;;;;;2.65;1.90;;;;;23.20;101449.00;;;;5048294;28;20223;-79
2022/06/27 00:26:51;;;;;;;2.72;1.63;;;;;23.30;101449.00;;;;5048248;28;20192;-78
2022/06/27 00:29:18;;;;;;;3.95;1.48;;;;;23.30;101454.00;;;;5054637;28;20199;-79
2022/06/27 00:31:46;;;;;;;2.35;1.98;;;;;23.30;101459.00;;;;5049533;28;20200;-78
2022/06/27 00:34:14;;;;;;;3.58;1.80;;;;;23.20;101451.00;;;;5056108;28;20203;-78
2022/06/27 00:36:43;;;;;;;2.92;2.10;;;;;23.20;101442.00;;;;5047744;28;20421;-78
2022/06/27 00:39:10;;;;;;;2.45;1.83;;;;;23.30;101446.00;;;;5057476;28;20219;-79
2022/06/27 00:41:38;;;;;;;4.35;1.83;;;;;23.20;101436.00;;;;5062066;28;20200;-79
2022/06/27 00:44:06;;;;;;;1.52;1.38;;;;;23.20;101435.00;;;;5055187;28;20222;-79
2022/06/27 00:46:33;;;;;;;3.35;2.08;;;;;23.20;101422.00;;;;5051947;28;20213;-79
2022/06/27 00:49:01;;;;;;;2.63;2.10;;;;;23.20;101432.00;;;;5058795;28;20202;-79
2022/06/27 00:51:29;;;;;;;4.22;2.20;;;;;23.20;101431.00;;;;5051826;28;20198;-79
2022/06/27 00:53:57;;;;;;;3.35;2.42;;;;;23.20;101430.00;;;;5052484;28;20240;-79
2022/06/27 00:56:24;;;;;;;2.30;2.10;;;;;23.20;101431.00;;;;5048021;28;20200;-79
2022/06/27 00:58:52;;;;;;;2.40;2.00;;;;;23.20;101431.00;;;;5059562;28;20704;-79
2022/06/27 01:01:19;;;;;;;2.38;2.17;;;;;23.30;101434.00;;;;5062179;28;20199;-79
2022/06/27 01:03:46;;;;;;;2.15;1.88;;;;;23.30;101435.00;;;;5053942;28;20196;-79
2022/06/27 01:06:14;;;;;;;2.58;2.17;;;;;23.30;101433.00;;;;5044728;28;20203;-78
2022/06/27 01:08:42;;;;;;;2.63;2.40;;;;;23.20;101432.00;;;;5049690;28;20192;-78
2022/06/27 01:11:10;;;;;;;2.60;1.70;;;;;23.30;101426.00;;;;5058069;28;20203;-79
2022/06/27 01:13:37;;;;;;;3.83;2.22;;;;;23.30;101427.00;;;;5053222;28;20678;-79
2022/06/27 01:16:05;;;;;;;3.08;1.52;;;;;23.30;101433.00;;;;5050303;28;20199;-79
2022/06/27 01:18:32;;;;;;;2.58;2.20;;;;;23.30;101437.00;;;;5050608;28;20210;-78
2022/06/27 01:21:01;;;;;;;3.53;2.17;;;;;23.20;101439.00;;;;5061415;28;20195;-79
2022/06/27 01:23:30;;;;;;;3.63;2.20;;;;;23.20;101443.00;;;;5055360;28;20195;-79
2022/06/27 01:25:57;;;;;;;4.32;2.03;;;;;23.30;101444.00;;;;5050654;28;20246;-79
2022/06/27 01:28:25;;;;;;;4.95;2.22;;;;;23.30;101447.00;;;;5049669;28;20214;-78
2022/06/27 01:30:52;;;;;;;2.60;1.90;;;;;23.30;101451.00;;;;5049578;28;20206;-78
2022/06/27 01:33:20;;;;;;;1.95;1.70;;;;;23.30;101453.00;;;;5053505;28;20202;-78
2022/06/27 01:36:41;;;;;;;4.22;2.10;;;;;23.30;101458.00;;;;5053658;28;20206;-78
2022/06/27 01:38:36;;;;;;;4.80;1.80;;;;;23.20;101461.00;;;;5053568;28;20191;-79
2022/06/27 01:41:03;;;;;;;2.92;1.95;;;;;23.30;101460.00;;;;5052000;28;20218;-78
2022/06/27 01:43:31;;;;;;;4.50;2.10;;;;;23.30;101470.00;;;;5056573;28;20198;-78
2022/06/27 01:45:58;;;;;;;2.95;2.65;;;;;23.30;101467.00;;;;5058054;28;20218;-79
2022/06/27 01:48:27;;;;;;;3.00;2.03;;;;;23.20;101457.00;;;;5057049;28;20210;-79
2022/06/27 01:50:59;;;;;;;4.82;2.00;;;;;23.20;101453.00;;;;5050110;28;20198;-79
2022/06/27 01:53:27;;;;;;;3.58;2.20;;;;;23.20;101449.00;;;;5058717;28;20231;-79
2022/06/27 01:55:56;;;;;;;2.65;1.95;;;;;23.20;101447.00;;;;5045731;28;20188;-79
2022/06/27 01:58:23;;;;;;;2.33;1.75;;;;;23.20;101441.00;;;;5046601;28;20188;-79
2022/06/27 02:00:50;;;;;;;3.85;2.03;;;;;23.20;101433.00;;;;5051486;28;20234;-78
2022/06/27 02:03:19;;;;;;;3.92;1.65;;;;;23.20;101432.00;;;;5045370;28;20211;-78
2022/06/27 02:05:47;;;;;;;2.95;1.70;;;;;23.20;101420.00;;;;5047559;28;20219;-78
2022/06/27 02:08:16;;;;;;;2.67;1.92;;;;;23.20;101415.00;;;;5046587;28;20202;-79
2022/06/27 02:10:43;;;;;;;3.45;2.35;;;;;23.20;101414.00;;;;5051987;28;20214;-79
2022/06/27 02:13:13;;;;;;;2.35;1.98;;;;;23.20;101413.00;;;;5054362;28;20200;-79
2022/06/27 02:16:06;;;;;;;2.92;2.20;;;;;23.10;101403.00;;;;5060179;28;20577;-79
2022/06/27 02:18:34;;;;;;;2.90;2.20;;;;;23.20;101398.00;;;;5054410;28;20195;-79
2022/06/27 02:21:01;;;;;;;3.78;2.10;;;;;23.20;101398.00;;;;5057829;28;20586;-79
2022/06/27 02:23:29;;;;;;;2.58;2.08;;;;;23.20;101402.00;;;;5057936;28;20206;-79
2022/06/27 02:25:57;;;;;;;2.97;2.33;;;;;23.10;101395.00;;;;5054011;28;20886;-79
2022/06/27 02:28:28;;;;;;;3.90;1.98;;;;;23.10;101401.00;;;;5053552;28;20592;-79
2022/06/27 02:30:56;;;;;;;2.75;1.90;;;;;23.10;101405.00;;;;5052158;28;20202;-79
2022/06/27 02:33:24;;;;;;;2.47;2.15;;;;;23.10;101397.00;;;;5053811;28;20576;-79
2022/06/27 02:35:54;;;;;;;3.75;1.83;;;;;23.10;101395.00;;;;5055438;28;20199;-79
2022/06/27 02:38:22;;;;;;;2.00;1.80;;;;;23.10;101394.00;;;;5057692;28;20191;-76
2022/06/27 02:40:49;;;;;;;6.78;2.00;;;;;23.10;101391.00;;;;5056282;28;20227;-78
2022/06/27 02:43:18;;;;;;;4.40;1.80;;;;;23.10;101390.00;;;;5051475;28;20199;-78
2022/06/27 02:45:48;;;;;;;3.70;1.90;;;;;23.10;101385.00;;;;5057058;28;20203;-78
2022/06/27 02:48:19;;;;;;;3.42;1.73;;;;;23.10;101378.00;;;;5048610;28;20199;-77
2022/06/27 02:50:52;;;;;;;2.17;1.92;;;;;23.10;101378.00;;;;5058912;28;20927;-78
2022/06/27 02:53:24;;;;;;;4.10;2.20;;;;;23.10;101369.00;;;;5050935;28;20222;-77
2022/06/27 02:55:56;;;;;;;2.45;1.88;;;;;23.00;101368.00;;;;5058754;28;20776;-78
2022/06/27 02:58:31;;;;;;;2.50;2.13;;;;;23.00;101358.00;;;;5050643;28;20273;-78
2022/06/27 03:01:01;;;;;;;2.97;2.30;;;;;23.00;101350.00;;;;5056406;28;20225;-78
2022/06/27 03:03:31;;;;;;;4.40;2.45;;;;;23.00;101346.00;;;;5060072;28;20665;-78
2022/06/27 03:06:02;;;;;;;3.08;1.83;;;;;23.00;101347.00;;;;5052035;28;20743;-78
2022/06/27 03:08:38;;;;;;;3.05;2.50;;;;;22.90;101344.00;;;;5057675;28;20202;-78
2022/06/27 03:11:06;;;;;;;2.15;1.95;;;;;23.00;101344.00;;;;5051974;28;20207;-78
2022/06/27 03:13:34;;;;;;;2.53;2.20;;;;;23.00;101340.00;;;;5058634;28;20681;-77
2022/06/27 03:16:03;;;;;;;2.55;2.20;;;;;22.90;101339.00;;;;5051214;28;20210;-77
2022/06/27 03:18:31;;;;;;;4.50;2.30;;;;;22.90;101350.00;;;;5048320;28;20199;-78
2022/06/27 03:20:58;;;;;;;5.03;2.60;;;;;22.90;101347.00;;;;5049227;28;20231;-77
2022/06/27 03:23:25;;;;;;;3.45;2.53;;;;;22.90;101345.00;;;;5055453;28;20205;-78
2022/06/27 03:25:53;;;;;;;4.38;2.10;;;;;22.80;101350.00;;;;5050028;28;21010;-78
2022/06/27 03:28:20;;;;;;;2.97;2.50;;;;;22.80;101349.00;;;;5051897;28;20222;-78
2022/06/27 03:30:48;;;;;;;6.00;2.22;;;;;22.80;101340.00;;;;5060500;28;20200;-77
2022/06/27 03:33:17;;;;;;;2.67;2.33;;;;;22.70;101336.00;;;;5051711;28;20191;-77
2022/06/27 03:35:44;;;;;;;6.35;2.85;;;;;22.70;101332.00;;;;5060475;28;20203;-77
2022/06/27 03:38:12;;;;;;;2.42;2.22;;;;;22.70;101337.00;;;;5053061;28;20233;-77
2022/06/27 03:40:40;;;;;;;2.20;2.00;;;;;22.70;101328.00;;;;5055247;28;20219;-77
2022/06/27 03:43:08;;;;;;;3.63;2.47;;;;;22.70;101326.00;;;;5057904;28;20195;-77
2022/06/27 03:45:35;;;;;;;3.22;2.50;;;;;22.60;101329.00;;;;5055231;28;20199;-78
2022/06/27 03:48:04;;;;;;;2.60;2.38;;;;;22.60;101331.00;;;;5055763;28;20192;-77
2022/06/27 03:50:32;;;;;;;3.28;2.20;;;;;22.60;101334.00;;;;5057017;28;20202;-77
2022/06/27 03:53:00;;;;;;;4.05;2.50;;;;;22.60;101332.00;;;;5057290;28;20272;-78
2022/06/27 03:55:27;;;;;;;2.55;2.30;;;;;22.60;101347.00;;;;5056437;28;20575;-78
2022/06/27 03:57:57;;;;;;;3.25;2.30;;;;;22.50;101338.00;;;;5052905;28;20200;-77
2022/06/27 04:00:27;;;;;;;2.95;2.25;;;;;22.50;101337.00;;;;5055604;28;20586;-78
2022/06/27 04:02:54;;;;;;;2.67;2.00;;;;;22.50;101333.00;;;;5052554;28;20265;-77
2022/06/27 04:05:21;;;;;;;5.15;2.50;;;;;22.50;101327.00;;;;5053221;28;20203;-78
2022/06/27 04:07:50;;;;;;;2.80;2.05;;;;;22.50;101330.00;;;;5055315;28;20198;-77
2022/06/27 04:10:18;;;;;;;2.88;2.15;;;;;22.50;101330.00;;;;5050505;28;20569;-78
2022/06/27 04:12:46;;;;;;;3.35;2.50;;;;;22.40;101334.00;;;;5055577;28;20211;-77
2022/06/27 04:15:13;;;;;;;5.57;2.58;;;;;22.40;101329.00;;;;5064451;28;20703;-78
2022/06/27 04:17:40;;;;;;;3.28;2.58;;;;;22.40;101328.00;;;;5048624;28;20208;-78
2022/06/27 04:20:09;;;;;;;3.97;2.35;;;;;22.40;101336.00;;;;5058359;28;20229;-78
2022/06/27 04:22:36;;;;;;;5.32;3.13;;;;;22.40;101334.00;;;;5052938;28;20666;-78
2022/06/27 04:25:05;;;;;;;2.22;2.03;;;;;22.40;101338.00;;;;5062684;28;20198;-77
2022/06/27 04:27:33;;;;;;;2.88;2.10;;;;;22.40;101337.00;;;;5049201;28;20215;-78
2022/06/27 04:30:01;;;;;;;3.67;1.77;;;;;22.50;101344.00;;;;5057194;28;20657;-77
2022/06/27 04:32:28;;;;;;;3.08;2.30;;;;;22.50;101340.00;;;;5058723;28;20212;-78
2022/06/27 04:34:55;;;;;;;3.75;2.10;;;;;22.50;101332.00;;;;5048368;28;20195;-78
2022/06/27 04:37:23;;;;;;;2.88;2.33;;;;;22.50;101332.00;;;;5057200;28;20732;-78
2022/06/27 04:39:51;;;;;;;3.33;2.60;;;;;22.50;101341.00;;;;5057606;28;20211;-78
2022/06/27 04:42:20;;;;;;;2.28;2.03;;;;;22.60;101331.00;;;;5050827;28;20191;-78
2022/06/27 04:44:47;;;;;;;2.80;2.22;;;;;22.60;101325.00;;;;5062351;28;20203;-78
2022/06/27 04:47:15;;;;;;;2.30;2.08;;;;;22.60;101318.00;;;;5057519;28;20204;-78
2022/06/27 04:49:43;;;;;;;3.75;2.40;;;;;22.60;101312.00;;;;5044701;28;20638;-77
2022/06/27 04:52:12;;;;;;;3.10;2.70;;;;;22.70;101297.00;;;;5051436;28;20210;-77
2022/06/27 04:54:39;;;;;;;2.40;2.20;;;;;22.70;101294.00;;;;5057967;28;20758;-77
2022/06/27 04:57:08;;;;;;;4.20;2.35;;;;;22.70;101290.00;;;;5053220;28;20198;-80
2022/06/27 04:59:37;;;;;;;2.33;2.13;;;;;22.80;101286.00;;;;5055298;28;20282;-78
2022/06/27 05:02:04;;;;;;;3.13;2.17;;;;;22.80;101277.00;;;;5055059;28;20585;-77
2022/06/27 05:04:32;;;;;;;3.28;2.70;;;;;22.80;101282.00;;;;5053432;28;20199;-79
2022/06/27 05:06:59;;;;;;;4.22;2.72;;;;;22.80;101283.00;;;;5051240;28;20206;-80
2022/06/27 05:09:27;;;;;;;3.05;2.72;;;;;22.90;101295.00;;;;5055449;28;20238;-80
2022/06/27 05:11:55;;;;;;;5.22;2.20;;;;;22.80;101290.00;;;;5050836;28;20203;-78
2022/06/27 05:14:24;;;;;;;2.53;2.10;;;;;22.90;101285.00;;;;5050279;28;20202;-78
2022/06/27 05:16:53;;;;;;;4.93;2.58;;;;;22.90;101297.00;;;;5052542;28;20310;-78
2022/06/27 05:19:20;;;;;;;3.08;2.42;;;;;23.00;101310.00;;;;5049549;28;20199;-79
2022/06/27 05:21:47;;;;;;;5.90;1.95;;;;;23.00;101309.00;;;;5048918;28;20235;-79
2022/06/27 05:24:15;;;;;;;3.00;1.95;;;;;23.00;101327.00;;;;5051986;28;20674;-80
2022/06/27 05:26:42;;;;;;;2.22;2.03;;;;;23.00;101332.00;;;;5047217;28;20210;-79
2022/06/27 05:29:10;;;;;;;4.05;1.75;;;;;23.10;101313.00;;;;5048759;28;20339;-80
2022/06/27 05:31:37;;;;;;;2.47;2.13;;;;;23.10;101298.00;;;;5047197;28;20666;-78
2022/06/27 05:34:06;;;;;;;3.20;2.13;;;;;23.10;101289.00;;;;5050117;28;20207;-78
2022/06/27 05:36:33;;;;;;;2.97;2.17;;;;;23.10;101302.00;;;;5048469;28;20208;-78
2022/06/27 05:39:01;;;;;;;4.13;2.80;;;;;23.20;101314.00;;;;5057237;28;20192;-76
2022/06/27 05:41:29;;;;;;;2.75;2.40;;;;;23.20;101323.00;;;;5048962;28;20341;-77
2022/06/27 05:43:56;;;;;;;2.28;2.08;;;;;23.20;101325.00;;;;5054331;28;20589;-77
2022/06/27 05:46:24;;;;;;;2.13;1.92;;;;;23.30;101324.00;;;;5056233;28;20278;-77
2022/06/27 05:48:52;;;;;;;2.58;2.38;;;;;23.30;101319.00;;;;5048250;28;20199;-78
2022/06/27 05:51:22;;;;;;;3.17;2.22;;;;;23.30;101328.00;;;;5050728;28;20203;-76
2022/06/27 05:53:50;;;;;;;3.28;2.38;;;;;23.40;101341.00;;;;5049946;28;20323;-76
2022/06/27 05:56:18;;;;;;;2.92;2.40;;;;;23.40;101364.00;;;;5044265;28;20204;-76
2022/06/27 05:58:46;;;;;;;5.80;2.25;;;;;23.40;101377.00;;;;5045411;28;20699;-78
2022/06/27 06:01:13;;;;;;;2.45;2.25;;;;;23.40;101390.00;;;;5049790;28;20223;-75
2022/06/27 06:03:41;;;;;;;2.10;1.90;;;;;23.50;101408.00;;;;5046648;28;20219;-76
2022/06/27 06:06:08;;;;;;;4.50;2.47;;;;;23.50;101407.00;;;;5055701;28;20241;-76
2022/06/27 06:08:37;;;;;;;5.80;2.25;;;;;23.50;101413.00;;;;5065359;28;20198;-76
2022/06/27 06:11:04;;;;;;;5.38;2.42;;;;;23.60;101409.00;;;;5046713;28;20203;-76
2022/06/27 06:13:32;;;;;;;2.50;2.00;;;;;23.60;101415.00;;;;5054731;28;20196;-77
2022/06/27 06:15:59;;;;;;;2.30;2.00;;;;;23.60;101410.00;;;;5053355;28;20209;-76
2022/06/27 06:18:27;;;;;;;4.95;2.63;;;;;23.70;101415.00;;;;5047379;28;20204;-76
2022/06/27 06:20:54;;;;;;;3.95;2.40;;;;;23.70;101424.00;;;;5048116;28;20296;-76
2022/06/27 06:23:21;;;;;;;4.30;2.65;;;;;23.70;101416.00;;;;5047458;28;20281;-76
2022/06/27 06:25:50;;;;;;;2.33;2.13;;;;;23.70;101428.00;;;;5060425;28;20199;-76
2022/06/27 06:28:18;;;;;;;2.63;2.17;;;;;23.70;101423.00;;;;5062899;28;20248;-76
2022/06/27 06:30:45;;;;;;;2.90;2.40;;;;;23.80;101407.00;;;;5049597;28;20192;-76
2022/06/27 06:33:13;;;;;;;3.22;2.22;;;;;23.80;101397.00;;;;5055001;28;20192;-76
2022/06/27 06:35:40;;;;;;;7.45;3.00;;;;;23.80;101402.00;;;;5049558;28;20737;-76
2022/06/27 06:38:08;;;;;;;3.53;3.00;;;;;23.80;101411.00;;;;5052649;28;20665;-76
2022/06/27 06:40:35;;;;;;;4.32;2.40;;;;;23.80;101419.00;;;;5054185;28;20696;-76
2022/06/27 06:43:04;;;;;;;3.72;2.83;;;;;23.80;101424.00;;;;5057158;28;20200;-76
2022/06/27 06:45:31;;;;;;;3.65;2.70;;;;;23.80;101433.00;;;;5060628;28;20214;-76
2022/06/27 06:47:59;;;;;;;4.38;2.78;;;;;23.90;101430.00;;;;5049755;28;20531;-76
2022/06/27 06:50:27;;;;;;;3.13;2.28;;;;;23.90;101441.00;;;;5054916;28;20210;-76
2022/06/27 06:52:54;;;;;;;4.38;2.58;;;;;23.90;101433.00;;;;5050339;28;20203;-76
2022/06/27 06:55:24;;;;;;;4.35;2.58;;;;;23.90;101418.00;;;;5054144;28;20673;-77
2022/06/27 06:57:51;;;;;;;3.67;2.80;;;;;23.90;101416.00;;;;5055172;28;20206;-77
2022/06/27 07:00:21;;;;;;;2.47;2.28;;;;;23.90;101425.00;;;;5056366;28;20196;-77
2022/06/27 07:02:49;;;;;;;3.67;2.58;;;;;24.00;101412.00;;;;5055478;28;20219;-78
2022/06/27 07:05:16;;;;;;;5.03;2.67;;;;;24.00;101391.00;;;;5048340;28;20222;-78
2022/06/27 07:07:44;;;;;;;4.05;2.80;;;;;24.00;101359.00;;;;5050017;28;20573;-77
2022/06/27 07:10:14;;;;;;;4.32;2.75;;;;;24.00;101362.00;;;;5050959;28;20200;-78
2022/06/27 07:12:42;;;;;;;5.15;3.05;;;;;24.00;101363.00;;;;5061759;28;20190;-78
2022/06/27 07:15:11;;;;;;;3.17;2.88;;;;;24.00;101351.00;;;;5053932;28;20291;-78
2022/06/27 07:17:45;;;;;;;4.22;3.15;;;;;24.00;101355.00;;;;5061412;28;20297;-77
2022/06/27 07:20:13;;;;;;;3.92;3.38;;;;;24.10;101347.00;;;;5059760;28;20207;-77
2022/06/27 07:22:42;;;;;;;4.65;3.20;;;;;24.10;101338.00;;;;5045859;28;20226;-77
2022/06/27 07:25:10;;;;;;;6.28;3.28;;;;;24.10;101347.00;;;;5054983;28;20203;-77
2022/06/27 07:27:39;;;;;;;4.80;3.63;;;;;24.20;101356.00;;;;5053765;28;20219;-77
2022/06/27 07:30:09;;;;;;;4.72;3.10;;;;;24.20;101342.00;;;;5063618;28;20198;-77
2022/06/27 07:32:37;;;;;;;3.95;3.15;;;;;24.20;101351.00;;;;5057294;28;20195;-77
2022/06/27 07:35:07;;;;;;;3.58;2.70;;;;;24.30;101369.00;;;;5056794;28;20761;-77
2022/06/27 07:37:34;;;;;;;5.90;2.85;;;;;24.30;101359.00;;;;5055241;28;20223;-77
2022/06/27 07:40:03;;;;;;;5.78;2.80;;;;;24.30;101367.00;;;;5060187;28;20211;-77
2022/06/27 07:42:31;;;;;;;4.00;3.20;;;;;24.40;101375.00;;;;5047820;28;20223;-77
2022/06/27 07:44:58;;;;;;;4.22;3.50;;;;;24.40;101375.00;;;;5055486;28;20210;-76
2022/06/27 07:47:25;;;;;;;6.03;3.78;;;;;24.40;101386.00;;;;5049306;28;20246;-76
2022/06/27 07:49:53;;;;;;;3.90;3.40;;;;;24.50;101398.00;;;;5056871;28;20205;-76
2022/06/27 07:52:21;;;;;;;4.40;3.30;;;;;24.50;101391.00;;;;5057731;28;20646;-76
2022/06/27 07:54:49;;;;;;;4.70;3.22;;;;;24.60;101378.00;;;;5047169;28;20227;-76
2022/06/27 07:57:17;;;;;;;6.22;4.53;;;;;24.70;101391.00;;;;5047825;28;20191;-76
2022/06/27 07:59:44;;;;;;;7.05;3.55;;;;;24.80;101394.00;;;;5055903;28;20191;-76
2022/06/27 08:02:11;;;;;;;5.63;3.70;;;;;24.90;101398.00;;;;5048654;28;20302;-76
2022/06/27 08:04:41;;;;;;;5.57;3.42;;;;;24.90;101404.00;;;;5047415;28;20199;-76
2022/06/27 08:07:08;;;;;;;7.57;3.78;;;;;25.00;101399.00;;;;5047798;28;20289;-76
2022/06/27 08:09:39;;;;;;;3.88;2.85;;;;;25.00;101412.00;;;;5058534;28;20207;-76
2022/06/27 08:12:07;;;;;;;6.63;3.63;;;;;25.10;101421.00;;;;5058261;28;20202;-76
2022/06/27 08:14:34;;;;;;;4.15;3.40;;;;;25.10;101430.00;;;;5052972;28;20584;-76
2022/06/27 08:17:02;;;;;;;5.28;3.42;;;;;25.10;101443.00;;;;5048960;28;20649;-76
2022/06/27 08:19:29;;;;;;;3.90;3.15;;;;;25.20;101452.00;;;;5056211;28;20191;-77
2022/06/27 08:21:58;;;;;;;4.25;3.00;;;;;25.20;101452.00;;;;5069081;28;20353;-76
2022/06/27 08:24:25;;;;;;;8.27;3.50;;;;;25.20;101446.00;;;;5061712;28;20289;-76
2022/06/27 08:26:54;;;;;;;4.68;3.88;;;;;25.20;101438.00;;;;5059105;28;20204;-76
2022/06/27 08:29:21;;;;;;;5.88;3.47;;;;;25.30;101408.00;;;;5052316;28;20218;-76
2022/06/27 08:31:51;;;;;;;3.05;2.63;;;;;25.30;101408.00;;;;5051352;28;20210;-77
2022/06/27 08:34:21;;;;;;;3.13;2.80;;;;;25.40;101416.00;;;;5058059;28;20578;-77
2022/06/27 08:36:48;;;;;;;5.88;3.40;;;;;25.40;101434.00;;;;5051048;28;20231;-76
2022/06/27 08:39:18;;;;;;;5.68;3.67;;;;;25.50;101425.00;;;;5051449;28;20665;-77
2022/06/27 08:41:46;;;;;;;4.18;3.55;;;;;25.50;101419.00;;;;5047493;28;20224;-76
2022/06/27 08:44:16;;;;;;;4.18;3.45;;;;;25.50;101430.00;;;;5051138;28;20195;-77
2022/06/27 08:46:46;;;;;;;6.07;3.78;;;;;25.50;101436.00;;;;5050210;28;20215;-77
2022/06/27 08:49:16;;;;;;;4.82;3.40;;;;;25.50;101436.00;;;;5051022;28;20203;-77
2022/06/27 08:51:44;;;;;;;6.60;3.38;;;;;25.60;101445.00;;;;5060361;28;20210;-77
2022/06/27 08:54:11;;;;;;;4.47;3.67;;;;;25.60;101444.00;;;;5056120;28;20642;-78
2022/06/27 08:56:39;;;;;;;3.63;3.28;;;;;25.60;101448.00;;;;5053229;28;21007;-78
2022/06/27 08:59:06;;;;;;;4.35;3.67;;;;;25.60;101463.00;;;;5059208;28;20222;-78
2022/06/27 09:01:35;;;;;;;3.85;3.35;;;;;25.60;101478.00;;;;5047986;28;20596;-78
2022/06/27 09:04:06;;;;;;;3.90;3.33;;;;;25.60;101483.00;;;;5051093;28;20191;-77
2022/06/27 09:06:35;;;;;;;4.03;3.03;;;;;25.60;101471.00;;;;5055419;28;20217;-77
2022/06/27 09:09:05;;;;;;;4.05;2.88;;;;;25.60;101465.00;;;;5055361;28;20199;-78
2022/06/27 09:11:35;;;;;;;4.68;3.28;;;;;25.60;101455.00;;;;5055031;28;20191;-78
2022/06/27 09:14:05;;;;;;;7.72;3.33;;;;;25.60;101460.00;;;;5048961;28;20206;-78
2022/06/27 09:16:34;;;;;;;4.40;3.17;;;;;25.60;101464.00;;;;5055708;28;20579;-78
2022/06/27 09:19:02;;;;;;;4.10;3.22;;;;;25.70;101459.00;;;;5051758;28;20302;-79
2022/06/27 09:21:29;;;;;;;3.33;3.03;;;;;25.70;101460.00;;;;5053964;28;20216;-77
2022/06/27 09:24:00;;;;;;;5.25;3.30;;;;;25.70;101463.00;;;;5058602;28;20208;-78
2022/06/27 09:26:30;;;;;;;5.13;3.55;;;;;25.70;101466.00;;;;5048864;28;20935;-78
2022/06/27 09:28:59;;;;;;;5.47;3.80;;;;;25.80;101466.00;;;;5049908;28;20423;-79
2022/06/27 09:31:32;;;;;;;4.82;3.45;;;;;25.80;101465.00;;;;5048467;28;20199;-78
2022/06/27 09:34:16;;;;;;;5.40;3.47;;;;;25.80;101465.00;;;;5051408;28;20202;-78
2022/06/27 09:36:49;;;;;;;3.42;3.10;;;;;25.90;101446.00;;;;5048345;28;20195;-79
2022/06/27 09:39:24;;;;;;;4.97;4.00;;;;;25.80;101453.00;;;;5048088;28;20573;-78
2022/06/27 09:41:56;;;;;;;4.35;3.47;;;;;25.90;101478.00;;;;5053062;28;20229;-77
2022/06/27 09:44:27;;;;;;;4.28;3.40;;;;;25.90;101486.00;;;;5048644;28;20188;-78
2022/06/27 09:47:03;;;;;;;6.03;3.38;;;;;25.90;101487.00;;;;5058078;28;20650;-78
2022/06/27 09:49:34;;;;;;;4.97;3.60;;;;;26.00;101499.00;;;;5047256;28;20278;-76
2022/06/27 09:52:06;;;;;;;6.72;3.97;;;;;26.00;101503.00;;;;5043657;28;20739;-78
2022/06/27 09:54:35;;;;;;;6.78;3.67;;;;;26.00;101490.00;;;;5045126;28;20219;-78
2022/06/27 09:57:04;;;;;;;5.78;4.10;;;;;26.10;101480.00;;;;5046409;28;20341;-77
2022/06/27 09:59:32;;;;;;;8.10;3.75;;;;;26.10;101469.00;;;;5049314;28;20195;-77
2022/06/27 10:02:01;;;;;;;5.15;4.03;;;;;26.10;101466.00;;;;5056198;28;20229;-77
2022/06/27 10:04:30;;;;;;;6.57;4.32;;;;;26.20;101466.00;;;;5047245;28;20294;-78
2022/06/27 10:07:01;;;;;;;4.82;4.35;;;;;26.20;101474.00;;;;5051062;28;20222;-77
2022/06/27 10:09:30;;;;;;;5.38;3.42;;;;;26.30;101479.00;;;;5056200;28;20195;-78
2022/06/27 10:12:22;;;;;;;4.93;2.85;;;;;26.20;101475.00;;;;5048378;28;20211;-77
2022/06/27 10:15:23;;;;;;;3.95;3.38;;;;;26.20;101479.00;;;;5045257;28;20199;-77
2022/06/27 10:17:53;;;;;;;3.05;2.60;;;;;26.30;101476.00;;;;5048820;28;20202;-78
2022/06/27 10:20:28;;;;;;;3.53;3.00;;;;;26.40;101470.00;;;;5054997;28;20196;-78
2022/06/27 10:23:31;;;;;;;3.97;2.47;;;;;26.30;101472.00;;;;5050817;28;20233;-79
2022/06/27 10:25:59;;;;;;;3.95;2.40;;;;;26.50;101466.00;;;;5055892;28;20195;-79
2022/06/27 10:28:27;;;;;;;4.45;2.47;;;;;26.50;101467.00;;;;5055737;28;20222;-78
2022/06/27 10:30:55;;;;;;;3.90;2.40;;;;;26.50;101464.00;;;;5051660;28;20215;-78
2022/06/27 10:33:41;;;;;;;3.47;2.38;;;;;26.40;101463.00;;;;5051751;28;20196;-78
2022/06/27 10:36:14;;;;;;;4.28;2.80;;;;;26.50;101459.00;;;;5054111;28;20199;-79
2022/06/27 10:38:49;;;;;;;3.70;2.72;;;;;26.50;101455.00;;;;5063091;28;20759;-79
2022/06/27 10:41:39;;;;;;;3.47;2.88;;;;;26.50;101453.00;;;;5050862;28;20194;-77
2022/06/27 10:44:28;;;;;;;5.80;3.28;;;;;26.70;101445.00;;;;5061074;28;20199;-77
2022/06/27 10:46:55;;;;;;;2.92;2.03;;;;;26.70;101442.00;;;;5059262;28;20206;-78
2022/06/27 10:49:27;;;;;;;4.10;2.85;;;;;26.70;101450.00;;;;5071056;28;20210;-78
2022/06/27 10:52:33;;;;;;;5.65;3.08;;;;;26.60;101455.00;;;;5067317;28;20214;-78
2022/06/27 10:55:02;;;;;;;5.53;2.83;;;;;26.80;101460.00;;;;5053808;28;20227;-78
2022/06/27 10:57:44;;;;;;;3.92;2.55;;;;;26.70;101458.00;;;;5050964;28;20582;-78
2022/06/27 11:00:34;;;;;;;3.97;2.22;;;;;26.80;101457.00;;;;5049215;28;20211;-78
2022/06/27 11:03:02;;;;;;;3.47;2.75;;;;;26.80;101453.00;;;;5055516;28;20230;-77
2022/06/27 11:05:32;;;;;;;7.03;2.72;;;;;26.80;101459.00;;;;5057219;28;20203;-78
2022/06/27 11:08:00;;;;;;;4.22;2.95;;;;;26.70;101469.00;;;;5054889;28;20207;-78
2022/06/27 11:10:29;;;;;;;4.40;2.45;;;;;26.70;101463.00;;;;5050241;28;20211;-78
2022/06/27 11:12:56;;;;;;;3.05;2.08;;;;;26.70;101471.00;;;;5051693;28;20214;-78
2022/06/27 11:15:25;;;;;;;5.28;2.40;;;;;26.70;101465.00;;;;5054792;28;20560;-77
2022/06/27 11:17:53;;;;;;;2.45;2.10;;;;;26.70;101475.00;;;;5062048;28;20211;-78
2022/06/27 11:20:23;;;;;;;3.60;2.28;;;;;26.70;101481.00;;;;5067888;28;20298;-77
2022/06/27 11:22:55;;;;;;;2.97;2.55;;;;;26.70;101475.00;;;;5054267;28;20780;-77
2022/06/27 11:25:24;;;;;;;3.83;1.88;;;;;26.70;101476.00;;;;5069738;28;20210;-78
2022/06/27 11:27:55;;;;;;;2.28;2.08;;;;;26.60;101480.00;;;;5055671;28;20492;-77
2022/06/27 11:33:19;;;;;;;3.08;2.30;;;;;26.60;101482.00;;;;5052266;28;20301;-77
2022/06/27 11:35:47;;;;;;;3.58;2.58;;;;;26.60;101482.00;;;;5067754;28;20236;-77
2022/06/27 11:38:25;;;;;;;3.40;2.40;;;;;26.50;101474.00;;;;5062283;28;20569;-78
2022/06/27 11:41:07;;;;;;;5.20;2.72;;;;;26.50;101471.00;;;;5056266;28;20195;-79
2022/06/27 11:43:52;;;;;;;4.50;2.75;;;;;26.40;101472.00;;;;5048019;28;20223;-78
2022/06/27 11:46:28;;;;;;;2.50;2.10;;;;;26.50;101476.00;;;;5056999;28;20203;-76
2022/06/27 11:48:57;;;;;;;4.00;2.83;;;;;26.50;101484.00;;;;5053641;28;20192;-77
2022/06/27 11:51:31;;;;;;;5.93;2.67;;;;;26.40;101473.00;;;;5056696;28;20191;-77
2022/06/27 11:54:02;;;;;;;3.88;2.90;;;;;26.40;101467.00;;;;5047484;28;20231;-76
2022/06/27 11:56:31;;;;;;;2.88;1.95;;;;;26.40;101466.00;;;;5047847;28;20191;-77
2022/06/27 11:59:00;;;;;;;3.67;2.70;;;;;26.40;101456.00;;;;5067214;28;20199;-77
2022/06/27 12:01:28;;;;;;;3.38;2.65;;;;;26.40;101476.00;;;;5058839;28;20206;-76
2022/06/27 12:04:12;;;;;;;4.07;2.35;;;;;26.20;101485.00;;;;5053624;28;20623;-77
2022/06/27 12:06:45;;;;;;;4.25;2.17;;;;;26.30;101493.00;;;;5061520;28;20218;-77
2022/06/27 12:09:12;;;;;;;2.55;2.33;;;;;26.30;101496.00;;;;5065246;28;20285;-77
2022/06/27 12:11:52;;;;;;;3.15;2.85;;;;;26.20;101491.00;;;;5055917;28;20202;-76
2022/06/27 12:14:21;;;;;;;5.65;3.58;;;;;26.20;101483.00;;;;5070036;28;20202;-76
2022/06/27 12:16:52;;;;;;;6.32;3.90;;;;;26.10;101473.00;;;;5064699;28;20207;-76
2022/06/27 12:19:20;;;;;;;4.70;3.20;;;;;26.10;101469.00;;;;5049458;28;20558;-76
2022/06/27 12:21:48;;;;;;;4.57;3.40;;;;;26.00;101483.00;;;;5055273;28;20885;-77
2022/06/27 12:24:16;;;;;;;5.20;3.45;;;;;25.90;101502.00;;;;5052173;28;20223;-76